Time;durP1;ratioP1;P1;durP2;ratioP2;P2;SDS_P1;SDS_P2;PMS_P1;PMS_P2;Temp;Humidity;BMP_temperature;BMP_pressure;BME280_temperature;BME280_humidity;BME280_pressure;Samples;Min_cycle;Max_cycle;Signal;HPM_P1;HPM_P2
2022/11/08 00:04:12;;;;;;;8.60;6.00;;;9.10;99.90;;;;;;1885977;75;21167;-86
2022/11/08 00:16:30;;;;;;;7.12;5.28;;;9.20;99.90;;;;;;1881947;75;21156;-87
2022/11/08 00:19:22;;;;;;;7.67;5.65;;;9.20;99.90;;;;;;1892550;75;21147;-88
2022/11/08 00:22:14;;;;;;;7.40;5.28;;;9.30;99.90;;;;;;1885955;75;21101;-87
2022/11/08 00:25:06;;;;;;;9.10;5.05;;;9.30;99.90;;;;;;1893492;75;21090;-87
2022/11/08 00:27:58;;;;;;;7.00;4.95;;;9.20;99.90;;;;;;1892251;75;21558;-85
2022/11/08 00:30:50;;;;;;;9.15;5.97;;;9.20;99.90;;;;;;1878150;75;21180;-86
2022/11/08 00:33:41;;;;;;;6.00;4.78;;;9.10;99.90;;;;;;1889071;75;21624;-87
2022/11/08 00:36:32;;;;;;;7.28;5.30;;;9.10;99.90;;;;;;1884094;75;21129;-87
2022/11/08 00:42:04;;;;;;;7.90;5.37;;;9.10;99.90;;;;;;1929600;72;22354;-88
2022/11/08 00:50:20;;;;;;;9.78;5.75;;;9.00;99.90;;;;;;1947087;72;22274;-85
2022/11/08 00:53:11;;;;;;;7.83;5.80;;;9.00;99.90;;;;;;1890523;75;21106;-88
2022/11/08 00:56:04;;;;;;;6.50;5.30;;;9.00;99.90;;;;;;1878591;75;21116;-87
2022/11/08 00:58:55;;;;;;;8.43;5.85;;;8.90;99.90;;;;;;1901528;75;21159;-86
2022/11/08 01:01:48;;;;;;;8.08;5.42;;;8.90;99.90;;;;;;1888698;75;21168;-86
2022/11/08 01:04:39;;;;;;;7.60;5.65;;;9.00;99.90;;;;;;1909459;75;21095;-86
2022/11/08 01:10:53;;;;;;;8.93;5.87;;;9.00;99.90;;;;;;1909718;75;21209;-87
2022/11/08 01:16:26;;;;;;;8.95;6.37;;;8.90;99.90;;;;;;1942137;72;22272;-86
2022/11/08 01:19:18;;;;;;;7.58;5.50;;;8.90;99.90;;;;;;1902061;75;21108;-87
2022/11/08 01:22:10;;;;;;;7.92;5.25;;;8.90;99.90;;;;;;1889721;75;21116;-87
2022/11/08 01:25:05;;;;;;;7.67;5.58;;;8.80;99.90;;;;;;1902233;75;21111;-86
2022/11/08 01:27:57;;;;;;;9.05;5.60;;;8.90;99.90;;;;;;1902646;75;21107;-86
2022/11/08 01:30:48;;;;;;;6.15;5.08;;;8.90;99.90;;;;;;1903267;75;21063;-86
2022/11/08 01:33:40;;;;;;;7.42;5.67;;;8.80;99.90;;;;;;1885984;75;21043;-86
2022/11/08 01:36:33;;;;;;;8.30;5.30;;;8.70;99.90;;;;;;1883264;75;21117;-86
2022/11/08 01:39:24;;;;;;;7.00;5.67;;;8.60;99.90;;;;;;1895862;75;21117;-86
2022/11/08 01:42:17;;;;;;;7.62;5.15;;;8.60;99.90;;;;;;1851849;77;21090;-86
2022/11/08 01:45:11;;;;;;;8.73;5.22;;;8.60;99.90;;;;;;1882377;75;21099;-85
2022/11/08 01:50:41;;;;;;;8.25;5.65;;;8.60;99.90;;;;;;1951513;72;22173;-86
2022/11/08 01:53:32;;;;;;;7.03;5.28;;;8.60;99.90;;;;;;1917484;74;21105;-86
2022/11/08 01:56:23;;;;;;;8.68;5.80;;;8.50;99.90;;;;;;1892320;75;21063;-87
2022/11/08 02:01:59;;;;;;;7.85;5.15;;;8.40;99.90;;;;;;1937906;72;22210;-85
2022/11/08 02:07:32;;;;;;;8.10;5.47;;;8.50;99.90;;;;;;1964444;72;22154;-86
2022/11/08 02:10:27;;;;;;;7.33;5.83;;;8.50;99.90;;;;;;1901208;74;21172;-86
2022/11/08 02:13:21;;;;;;;8.60;5.42;;;8.60;99.90;;;;;;1933130;74;21142;-87
2022/11/08 02:16:14;;;;;;;7.87;5.40;;;8.60;99.90;;;;;;1901619;74;21148;-86
2022/11/08 02:19:07;;;;;;;6.70;4.47;;;8.50;99.90;;;;;;1913943;74;21089;-86
2022/11/08 02:22:01;;;;;;;6.20;5.17;;;8.50;99.90;;;;;;1921343;74;21236;-86
2022/11/08 02:24:53;;;;;;;7.05;5.08;;;8.40;99.90;;;;;;1906420;74;21131;-86
2022/11/08 02:27:44;;;;;;;7.20;5.05;;;8.40;99.90;;;;;;1909961;74;21117;-87
2022/11/08 02:30:37;;;;;;;6.62;4.72;;;8.40;99.90;;;;;;1907702;74;21177;-86
2022/11/08 02:36:09;;;;;;;7.70;4.92;;;8.60;99.90;;;;;;1943232;72;22160;-88
2022/11/08 02:39:00;;;;;;;6.42;4.90;;;8.70;99.90;;;;;;1911163;74;21192;-88
2022/11/08 02:41:51;;;;;;;6.90;5.40;;;8.60;99.90;;;;;;1904694;75;21124;-87
2022/11/08 02:44:43;;;;;;;7.58;5.05;;;8.60;99.90;;;;;;1907333;74;21173;-87
2022/11/08 02:47:34;;;;;;;10.15;4.90;;;8.60;99.90;;;;;;1875175;75;21072;-86
2022/11/08 02:50:25;;;;;;;8.93;5.10;;;8.60;99.90;;;;;;1907718;74;21138;-87
2022/11/08 02:53:17;;;;;;;7.08;5.00;;;8.40;99.90;;;;;;1892085;75;21147;-86
2022/11/08 02:56:09;;;;;;;6.67;5.00;;;8.30;99.90;;;;;;1895239;75;21083;-87
2022/11/08 03:01:39;;;;;;;7.45;5.15;;;8.10;99.90;;;;;;1954255;72;22226;-86
2022/11/08 03:04:32;;;;;;;9.18;5.65;;;8.10;99.90;;;;;;1908024;74;21098;-87
2022/11/08 03:07:23;;;;;;;8.18;5.37;;;8.00;99.90;;;;;;1920931;74;21088;-86
2022/11/08 03:10:15;;;;;;;7.72;5.37;;;8.10;99.90;;;;;;1904933;75;21120;-86
2022/11/08 03:15:46;;;;;;;8.38;5.40;;;8.20;99.90;;;;;;1940252;72;22177;-85
2022/11/08 03:21:19;;;;;;;6.90;4.53;;;8.30;99.90;;;;;;1930632;72;22260;-86
2022/11/08 03:24:12;;;;;;;6.35;5.20;;;8.30;99.90;;;;;;1890458;75;21087;-86
2022/11/08 03:27:03;;;;;;;7.67;4.92;;;8.30;99.90;;;;;;1872819;75;21103;-86
2022/11/08 03:29:55;;;;;;;9.60;5.58;;;8.10;99.90;;;;;;1843311;77;21071;-86
2022/11/08 03:32:46;;;;;;;9.30;5.70;;;7.90;99.90;;;;;;1888028;75;21149;-87
2022/11/08 03:35:37;;;;;;;8.53;4.97;;;7.80;99.90;;;;;;1879782;75;21090;-86
2022/11/08 03:38:29;;;;;;;7.37;4.80;;;7.70;99.90;;;;;;1881711;75;21112;-87
2022/11/08 03:41:20;;;;;;;8.80;5.30;;;7.70;99.90;;;;;;1842892;77;21094;-86
2022/11/08 03:44:12;;;;;;;6.67;5.30;;;7.60;99.90;;;;;;1893369;75;21115;-86
2022/11/08 03:47:06;;;;;;;8.33;5.40;;;7.60;99.90;;;;;;1898080;75;21099;-86
2022/11/08 03:52:42;;;;;;;8.43;5.20;;;7.70;99.90;;;;;;1941343;72;22778;-85
2022/11/08 03:55:33;;;;;;;8.50;4.85;;;7.70;99.90;;;;;;1918572;74;21111;-88
2022/11/08 03:58:24;;;;;;;7.42;4.85;;;7.70;99.90;;;;;;1875275;76;21212;-88
2022/11/08 04:01:16;;;;;;;7.08;5.00;;;7.70;99.90;;;;;;1906052;75;21094;-88
2022/11/08 04:04:08;;;;;;;6.47;5.00;;;7.60;99.90;;;;;;1887908;75;21146;-86
2022/11/08 04:06:59;;;;;;;7.60;4.53;;;7.60;99.90;;;;;;1900242;75;21050;-87
2022/11/08 04:09:50;;;;;;;8.18;4.95;;;7.60;99.90;;;;;;1903474;75;21106;-87
2022/11/08 04:15:22;;;;;;;7.58;5.17;;;7.60;99.90;;;;;;1950285;72;22159;-85
2022/11/08 04:21:20;;;;;;;7.50;5.00;;;7.50;99.90;;;;;;1949077;72;22144;-86
2022/11/08 04:24:12;;;;;;;9.48;5.08;;;7.50;99.90;;;;;;1911804;74;21180;-88
2022/11/08 04:27:03;;;;;;;9.00;5.03;;;7.60;99.90;;;;;;1918842;74;21229;-88
2022/11/08 04:29:56;;;;;;;7.33;4.62;;;7.70;99.90;;;;;;1929996;74;21153;-88
2022/11/08 04:35:30;;;;;;;8.75;5.05;;;7.70;99.90;;;;;;1927734;72;22237;-88
2022/11/08 04:38:22;;;;;;;7.05;5.00;;;7.70;99.90;;;;;;1884773;75;21146;-87
2022/11/08 04:41:17;;;;;;;7.53;5.35;;;7.60;99.90;;;;;;1872861;75;21104;-87
2022/11/08 04:44:09;;;;;;;7.45;5.30;;;7.60;99.90;;;;;;1881745;75;21518;-87
2022/11/08 04:47:00;;;;;;;8.80;5.40;;;7.60;99.90;;;;;;1878955;75;21129;-87
2022/11/08 04:52:35;;;;;;;6.22;4.85;;;7.70;99.90;;;;;;1956688;72;22119;-86
2022/11/08 04:55:26;;;;;;;6.30;4.83;;;7.70;99.90;;;;;;1927042;74;21173;-86
2022/11/08 04:58:18;;;;;;;9.70;5.03;;;7.70;99.90;;;;;;1908737;74;21357;-87
2022/11/08 05:01:11;;;;;;;9.35;4.92;;;7.70;99.90;;;;;;1917442;74;21171;-87
2022/11/08 05:04:02;;;;;;;7.65;5.47;;;7.70;99.90;;;;;;1919119;74;21123;-87
2022/11/08 05:06:54;;;;;;;9.23;5.53;;;7.90;99.90;;;;;;1927386;74;21169;-86
2022/11/08 05:09:45;;;;;;;7.25;4.75;;;7.90;99.90;;;;;;1914755;74;21161;-87
2022/11/08 05:12:36;;;;;;;8.73;5.10;;;7.90;99.90;;;;;;1926845;74;21504;-87
2022/11/08 05:15:28;;;;;;;5.92;4.55;;;7.90;99.90;;;;;;1917232;74;21192;-88
2022/11/08 05:18:20;;;;;;;6.28;4.67;;;7.90;99.90;;;;;;1914679;74;21550;-87
2022/11/08 05:24:21;;;;;;;6.12;4.30;;;7.90;99.90;;;;;;1876712;75;21151;-87
2022/11/08 05:27:13;;;;;;;5.03;3.98;;;7.90;99.90;;;;;;1905246;75;21135;-87
2022/11/08 05:30:06;;;;;;;6.05;4.53;;;7.90;99.90;;;;;;1924437;74;21055;-87
2022/11/08 05:35:48;;;;;;;5.70;4.20;;;7.80;99.90;;;;;;1945609;72;22232;-88
2022/11/08 05:38:40;;;;;;;7.80;4.65;;;7.80;99.90;;;;;;1931158;73;21643;-88
2022/11/08 05:41:31;;;;;;;7.20;4.47;;;7.80;99.90;;;;;;1937626;73;21159;-89
2022/11/08 05:44:22;;;;;;;6.08;4.08;;;7.80;99.90;;;;;;1935534;73;21130;-87
2022/11/08 05:47:14;;;;;;;6.42;4.40;;;7.90;99.90;;;;;;1916040;73;21552;-87
2022/11/08 05:52:47;;;;;;;6.00;4.65;;;7.80;99.90;;;;;;1949330;72;22187;-89
2022/11/08 05:55:40;;;;;;;5.92;4.60;;;7.80;99.90;;;;;;1884311;75;21100;-88
2022/11/08 05:58:34;;;;;;;6.62;4.50;;;7.80;99.90;;;;;;1893414;75;21164;-87
2022/11/08 06:01:36;;;;;;;6.45;4.95;;;7.90;99.90;;;;;;1886264;75;21228;-87
2022/11/08 06:04:28;;;;;;;8.70;4.90;;;7.90;99.90;;;;;;1898830;75;21187;-89
2022/11/08 06:07:19;;;;;;;9.08;5.80;;;7.90;99.90;;;;;;1900174;75;21164;-88
2022/11/08 06:10:11;;;;;;;5.78;4.40;;;7.80;99.90;;;;;;1900196;75;21125;-88
2022/11/08 06:13:02;;;;;;;9.65;5.08;;;7.80;99.90;;;;;;1890324;75;21560;-88
2022/11/08 06:15:54;;;;;;;8.15;4.97;;;7.80;99.90;;;;;;1898142;75;21123;-88
2022/11/08 06:21:31;;;;;;;7.03;5.55;;;7.80;99.90;;;;;;1914826;72;28088;-88
2022/11/08 06:24:23;;;;;;;6.72;4.87;;;8.00;99.90;;;;;;1884725;75;21167;-87
2022/11/08 06:27:18;;;;;;;6.72;5.00;;;7.90;99.90;;;;;;1895186;75;21114;-86
2022/11/08 06:30:12;;;;;;;6.40;4.80;;;7.90;99.90;;;;;;1902023;75;21149;-87
2022/11/08 06:33:03;;;;;;;7.15;5.35;;;7.90;99.90;;;;;;1884306;75;21093;-86
2022/11/08 06:35:55;;;;;;;6.67;5.08;;;7.90;99.90;;;;;;1906226;75;21059;-86
2022/11/08 06:41:29;;;;;;;7.33;4.65;;;7.90;99.90;;;;;;1958319;72;22282;-87
2022/11/08 06:44:21;;;;;;;6.55;4.95;;;7.90;99.90;;;;;;1907335;74;21052;-88
2022/11/08 06:47:13;;;;;;;6.62;4.70;;;8.00;99.90;;;;;;1904918;75;21111;-88
2022/11/08 06:50:07;;;;;;;6.20;4.67;;;8.00;99.90;;;;;;1903625;74;21104;-87
2022/11/08 06:55:39;;;;;;;7.33;4.97;;;8.00;99.90;;;;;;1929057;72;22279;-88
2022/11/08 07:01:15;;;;;;;8.03;5.03;;;8.10;99.90;;;;;;1966254;72;22123;-88
2022/11/08 07:04:07;;;;;;;8.08;4.60;;;8.20;99.90;;;;;;1909013;74;21099;-79
2022/11/08 07:06:59;;;;;;;6.12;4.50;;;8.20;99.90;;;;;;1905862;75;21206;-91
2022/11/08 07:12:41;;;;;;;7.55;4.40;;;8.30;99.90;;;;;;1954224;72;22266;-92
2022/11/08 07:15:35;;;;;;;8.08;4.15;;;8.40;99.90;;;;;;1938299;73;21203;-92
2022/11/08 07:18:28;;;;;;;6.22;4.03;;;8.40;99.90;;;;;;1917671;75;21058;-91
2022/11/08 07:21:20;;;;;;;6.28;4.30;;;8.30;99.90;;;;;;1919543;75;21055;-90
2022/11/08 07:24:12;;;;;;;7.25;4.10;;;8.40;99.90;;;;;;1930518;73;21102;-92
2022/11/08 07:27:04;;;;;;;6.92;4.42;;;8.40;99.90;;;;;;1918840;73;21047;-90
2022/11/08 07:29:56;;;;;;;7.22;3.87;;;8.30;99.90;;;;;;1917361;75;21141;-91
2022/11/08 07:35:33;;;;;;;6.85;4.70;;;8.40;99.90;;;;;;1945550;72;22196;-94
2022/11/08 07:38:25;;;;;;;5.70;3.98;;;8.40;99.90;;;;;;1939135;73;21103;-92
2022/11/08 07:41:21;;;;;;;7.05;4.15;;;8.50;99.90;;;;;;1917488;75;21074;-92
2022/11/08 07:44:13;;;;;;;8.18;4.70;;;8.50;99.90;;;;;;1917732;75;21188;-91
2022/11/08 07:47:05;;;;;;;9.23;4.70;;;8.60;99.90;;;;;;1917685;75;21118;-93
2022/11/08 07:49:56;;;;;;;5.85;4.03;;;8.70;99.90;;;;;;1884593;75;21126;-93
2022/11/08 07:52:51;;;;;;;7.15;3.83;;;8.70;99.90;;;;;;1917793;73;21123;-92
2022/11/08 07:55:43;;;;;;;9.58;4.03;;;8.70;99.90;;;;;;1938087;73;21098;-91
2022/11/08 07:58:36;;;;;;;6.87;4.03;;;8.80;99.90;;;;;;1936182;73;21080;-92
2022/11/08 08:01:27;;;;;;;6.30;3.83;;;8.80;99.90;;;;;;1917321;73;21438;-91
2022/11/08 08:04:19;;;;;;;6.75;3.87;;;8.90;99.90;;;;;;1917510;75;21181;-92
2022/11/08 08:07:11;;;;;;;13.22;8.73;;;8.90;99.90;;;;;;1917819;75;21034;-92
2022/11/08 08:10:02;;;;;;;7.15;4.25;;;8.90;99.90;;;;;;1935905;73;21156;-92
2022/11/08 08:12:54;;;;;;;6.33;4.15;;;9.00;99.90;;;;;;1917484;75;21051;-92
2022/11/08 08:18:29;;;;;;;7.20;4.15;;;9.00;99.90;;;;;;1946863;72;22208;-92
2022/11/08 08:21:20;;;;;;;6.42;3.95;;;9.10;99.90;;;;;;1928584;73;21054;-92
2022/11/08 08:27:28;;;;;;;7.33;4.20;;;9.50;99.90;;;;;;1986598;71;22633;-92
2022/11/08 08:30:21;;;;;;;5.17;3.87;;;9.60;99.90;;;;;;1959068;72;21114;-93
2022/11/08 08:33:15;;;;;;;8.30;3.50;;;9.70;99.90;;;;;;2032855;70;21078;-91
2022/11/08 08:36:09;;;;;;;6.53;3.58;;;9.80;99.90;;;;;;2033419;70;21343;-94
2022/11/08 08:39:01;;;;;;;5.75;3.75;;;9.90;99.90;;;;;;2037094;69;21028;-92
2022/11/08 08:41:52;;;;;;;4.62;3.47;;;9.90;99.90;;;;;;2032293;70;21109;-94
2022/11/08 08:44:44;;;;;;;9.05;4.53;;;9.90;99.90;;;;;;1990310;72;21086;-93
2022/11/08 08:47:35;;;;;;;10.85;3.77;;;10.00;99.90;;;;;;2033198;70;21043;-93
2022/11/08 08:50:28;;;;;;;6.92;3.52;;;10.10;99.90;;;;;;2032417;70;21123;-93
2022/11/08 08:53:20;;;;;;;5.92;3.55;;;10.20;99.90;;;;;;2032773;70;21145;-92
2022/11/08 08:56:12;;;;;;;6.87;4.03;;;10.20;99.90;;;;;;2034914;70;21081;-92
2022/11/08 09:02:19;;;;;;;6.08;3.17;;;10.40;99.90;;;;;;2014263;71;22229;-94
2022/11/08 09:05:11;;;;;;;6.17;3.87;;;10.50;99.90;;;;;;1977920;72;21141;-92
2022/11/08 09:08:03;;;;;;;8.40;4.17;;;10.60;99.90;;;;;;2033064;70;21134;-93
2022/11/08 09:10:55;;;;;;;6.95;4.15;;;10.80;99.90;;;;;;2057554;69;21177;-93
2022/11/08 22:26:28;;;;;;;4.22;1.95;;;15.20;99.90;;;;;;1951198;72;22141;-90
2022/11/08 22:29:21;;;;;;;4.97;2.30;;;15.10;99.90;;;;;;1939737;73;21094;-90
2022/11/08 22:32:13;;;;;;;3.45;1.60;;;15.10;99.90;;;;;;1937619;73;21062;-90
2022/11/08 22:35:05;;;;;;;4.28;1.98;;;15.10;99.90;;;;;;1934830;73;21100;-90
2022/11/08 22:37:58;;;;;;;3.83;1.80;;;15.10;99.90;;;;;;1947747;73;21203;-89
2022/11/08 22:40:49;;;;;;;3.75;1.77;;;15.10;99.90;;;;;;1916540;75;21163;-89
2022/11/08 22:43:41;;;;;;;3.33;1.90;;;15.20;99.90;;;;;;1918387;73;21220;-88
2022/11/08 22:46:32;;;;;;;2.02;1.67;;;15.20;99.90;;;;;;1917136;75;21140;-89
2022/11/08 22:49:23;;;;;;;2.15;1.67;;;15.20;99.90;;;;;;1930807;73;21077;-89
2022/11/08 22:52:15;;;;;;;2.67;1.60;;;15.30;99.90;;;;;;1930846;73;21094;-88
2022/11/08 22:55:09;;;;;;;4.25;1.62;;;15.40;99.90;;;;;;1917931;75;21102;-88
2022/11/08 22:58:03;;;;;;;2.58;1.75;;;15.50;99.90;;;;;;1917159;75;21612;-89
2022/11/08 23:00:54;;;;;;;2.65;1.50;;;15.50;99.90;;;;;;1933201;73;21083;-89
2022/11/08 23:03:47;;;;;;;2.77;1.20;;;15.50;99.90;;;;;;1916669;75;21150;-89
2022/11/08 23:06:39;;;;;;;2.85;1.20;;;15.50;99.90;;;;;;1926035;73;21130;-89
2022/11/08 23:09:30;;;;;;;2.45;1.20;;;15.90;99.90;;;;;;1927252;73;21559;-87
2022/11/08 23:24:18;;;;;;;3.17;1.40;;;16.40;99.90;;;;;;1932163;73;21119;-88
2022/11/08 23:24:54;;;;;;;2.40;1.50;;;16.20;99.90;;;;;;1863308;75;21105;-88
2022/11/08 23:34:05;;;;;;;1.72;0.95;;;16.40;99.90;;;;;;1916868;75;21530;-90
2022/11/08 23:36:57;;;;;;;2.62;1.15;;;16.60;99.90;;;;;;1916430;75;21152;-90
2022/11/08 23:45:42;;;;;;;2.17;0.70;;;16.80;99.90;;;;;;1904393;75;21172;-88
2022/11/08 23:48:34;;;;;;;2.17;1.10;;;17.10;99.90;;;;;;1910026;74;21051;-88
2022/11/08 23:51:26;;;;;;;1.72;0.90;;;17.10;99.90;;;;;;1904997;75;21145;-88
2022/11/08 23:59:51;;;;;;;2.37;0.70;;;17.20;99.90;;;;;;1934233;72;22153;-87
